logo dgac
Miércoles 24 de Julio del 2024
Buscar por aerodromo o helipuerto
Ingrese nombre de aeródromo, localidad o designador OACI:
TAF: TAF SCMK 231116Z 2312/2324 24010KT 9999 BKN005 TN08/2313Z TX10/2319Z BECMG 2316/2318 BKN008 OVC015
TAF del 23/07/2024 a las 11:16 UTC
Para mayor información visite www.meteochile.gob.cl
Período de validez: desde el 23 a las 12:00 UTC hasta el 23 a las 24:00 UTC
Viento: dirección 240 grados, velocidad 10 nudos
Visibilidad: 10 km o más
Nubes: Nublado a 500 pies sobre el nivel del aeródromo
Temperatura mínima: 8ºC el 23 a las 13:00 UTC
Temperatura máxima: 10ºC el 23 a las 19:00 UTC
Se espera un cambio entre las 16:00 UTC del 23 y las 18:00 UTC del 23, :
Nubes: Nublado a 800 pies sobre el nivel del aeródromo
Nubes: Cubierto a 1500 pies sobre el nivel del aeródromo